Terminal Aerodrome Forecast
Issued by NWS

Home | Current Version | Previous Version | Text Only | Print | Product List | Glossary On
Versions: 1 2 3 4 5 6 7 8 9 10 11 12 13 14 15 16 17 18 19 20
000
FTUS41 KILN 290539
TAFLCK
TAF
KLCK 290539Z 2906/3006 00000KT P6SM SKC
     FM290800 00000KT 4SM BR SCT250
     FM291200 22005KT P6SM BKN200
     FM292000 27008KT P6SM VCTS BKN035CB=

USA.gov is the U.S. government's official web portal to all federal, state and local government web resources and services.